Terminal Aerodrome Forecast
Issued by NWS

Home | Current Version | Previous Version | Text Only | Print | Product List | Glossary On
Versions: 1 2 3 4 5 6 7 8 9 10 11 12 13 14 15 16
000
FTUS45 KABQ 031100
TAFGUP
TAF
KGUP 031140Z 0312/0412 25006KT P6SM VCFG BKN015
     FM031700 23009G16KT P6SM SCT035 SCT100
     FM032000 24014G22KT P6SM SCT070 SCT110
     FM040200 23006KT P6SM VCSH SCT040 BKN060=

USA.gov is the U.S. government's official web portal to all federal, state and local government web resources and services.